sensor_id;sensor_type;location;lat;lon;timestamp;pressure;altitude;pressure_sealevel;temperature;humidity
77212;BME280;66206;0.000;0.000;2023-02-28T00:02:01;98701.13;;;24.34;22.20
77212;BME280;66206;0.000;0.000;2023-02-28T00:04:28;98697.94;;;23.98;22.23
77212;BME280;66206;0.000;0.000;2023-02-28T00:06:54;98699.60;;;23.87;22.32
77212;BME280;66206;0.000;0.000;2023-02-28T00:09:21;98698.21;;;23.94;22.71
77212;BME280;66206;0.000;0.000;2023-02-28T00:11:48;98700.25;;;23.81;22.56
77212;BME280;66206;0.000;0.000;2023-02-28T00:14:14;98699.69;;;23.87;22.52
77212;BME280;66206;0.000;0.000;2023-02-28T00:16:41;98697.89;;;23.60;22.87
77212;BME280;66206;0.000;0.000;2023-02-28T00:19:08;98697.75;;;23.64;22.70
77212;BME280;66206;0.000;0.000;2023-02-28T00:21:34;98696.21;;;23.61;22.91
77212;BME280;66206;0.000;0.000;2023-02-28T00:24:01;98696.91;;;23.69;22.69
77212;BME280;66206;0.000;0.000;2023-02-28T00:26:28;98697.94;;;23.73;22.67
77212;BME280;66206;0.000;0.000;2023-02-28T00:28:54;98697.72;;;23.81;22.51
77212;BME280;66206;0.000;0.000;2023-02-28T00:31:21;98694.36;;;23.85;22.56
77212;BME280;66206;0.000;0.000;2023-02-28T00:33:48;98692.31;;;23.82;22.57
77212;BME280;66206;0.000;0.000;2023-02-28T00:36:14;98695.16;;;23.83;22.50
77212;BME280;66206;0.000;0.000;2023-02-28T00:38:41;98695.57;;;24.00;22.61
77212;BME280;66206;0.000;0.000;2023-02-28T00:41:08;98693.50;;;23.98;22.46
77212;BME280;66206;0.000;0.000;2023-02-28T00:43:36;98693.56;;;23.97;22.56
77212;BME280;66206;0.000;0.000;2023-02-28T00:46:03;98697.54;;;23.65;22.74
77212;BME280;66206;0.000;0.000;2023-02-28T00:48:29;98695.82;;;23.41;22.90
77212;BME280;66206;0.000;0.000;2023-02-28T00:50:56;98694.84;;;23.32;23.01
77212;BME280;66206;0.000;0.000;2023-02-28T00:53:23;98689.74;;;23.51;23.02
77212;BME280;66206;0.000;0.000;2023-02-28T00:55:50;98691.17;;;23.51;22.84
77212;BME280;66206;0.000;0.000;2023-02-28T00:58:17;98691.31;;;23.86;22.67
77212;BME280;66206;0.000;0.000;2023-02-28T01:00:43;98690.38;;;23.60;22.84
77212;BME280;66206;0.000;0.000;2023-02-28T01:03:10;98687.65;;;23.56;22.85
77212;BME280;66206;0.000;0.000;2023-02-28T01:05:37;98685.64;;;23.48;23.02
77212;BME280;66206;0.000;0.000;2023-02-28T01:08:04;98683.13;;;23.45;22.85
77212;BME280;66206;0.000;0.000;2023-02-28T01:10:30;98682.53;;;23.48;23.01
77212;BME280;66206;0.000;0.000;2023-02-28T01:12:57;98680.59;;;23.55;23.02
77212;BME280;66206;0.000;0.000;2023-02-28T01:15:24;98678.37;;;23.39;22.85
77212;BME280;66206;0.000;0.000;2023-02-28T01:17:50;98678.46;;;23.44;22.89
77212;BME280;66206;0.000;0.000;2023-02-28T01:20:17;98679.11;;;23.60;22.82
77212;BME280;66206;0.000;0.000;2023-02-28T01:22:44;98678.69;;;23.27;23.01
77212;BME280;66206;0.000;0.000;2023-02-28T01:25:11;98674.84;;;23.50;22.97
77212;BME280;66206;0.000;0.000;2023-02-28T01:27:38;98674.37;;;23.06;23.35
77212;BME280;66206;0.000;0.000;2023-02-28T01:30:05;98673.75;;;22.79;23.75
77212;BME280;66206;0.000;0.000;2023-02-28T01:32:32;98670.15;;;23.28;23.19
77212;BME280;66206;0.000;0.000;2023-02-28T01:34:58;98670.29;;;23.17;23.29
77212;BME280;66206;0.000;0.000;2023-02-28T01:37:25;98667.51;;;22.91;23.42
77212;BME280;66206;0.000;0.000;2023-02-28T01:39:52;98668.66;;;22.98;23.40
77212;BME280;66206;0.000;0.000;2023-02-28T01:42:19;98665.01;;;23.07;23.18
77212;BME280;66206;0.000;0.000;2023-02-28T01:45:03;98661.71;;;23.10;23.14
77212;BME280;66206;0.000;0.000;2023-02-28T01:47:14;98663.62;;;22.91;23.32
77212;BME280;66206;0.000;0.000;2023-02-28T01:49:41;98664.91;;;22.87;23.51
77212;BME280;66206;0.000;0.000;2023-02-28T01:52:09;98663.22;;;22.82;23.42
77212;BME280;66206;0.000;0.000;2023-02-28T01:54:37;98663.59;;;22.80;23.37
77212;BME280;66206;0.000;0.000;2023-02-28T01:57:05;98665.13;;;22.55;23.58
77212;BME280;66206;0.000;0.000;2023-02-28T01:59:34;98662.44;;;22.60;23.46
77212;BME280;66206;0.000;0.000;2023-02-28T02:02:02;98663.50;;;22.62;23.36
77212;BME280;66206;0.000;0.000;2023-02-28T02:04:31;98661.94;;;22.42;23.52
77212;BME280;66206;0.000;0.000;2023-02-28T02:06:59;98660.18;;;22.30;23.63
77212;BME280;66206;0.000;0.000;2023-02-28T02:09:26;98657.21;;;22.21;23.74
77212;BME280;66206;0.000;0.000;2023-02-28T02:11:52;98655.67;;;22.04;23.83
77212;BME280;66206;0.000;0.000;2023-02-28T02:14:26;98656.15;;;22.18;23.73
77212;BME280;66206;0.000;0.000;2023-02-28T02:16:50;98656.30;;;22.24;23.70
77212;BME280;66206;0.000;0.000;2023-02-28T02:19:28;98652.26;;;21.86;24.11
77212;BME280;66206;0.000;0.000;2023-02-28T02:21:47;98651.54;;;21.89;24.03
77212;BME280;66206;0.000;0.000;2023-02-28T02:24:11;98650.70;;;21.76;24.02
77212;BME280;66206;0.000;0.000;2023-02-28T02:26:41;98645.62;;;21.50;24.19
77212;BME280;66206;0.000;0.000;2023-02-28T02:29:05;98639.90;;;21.91;23.93
77212;BME280;66206;0.000;0.000;2023-02-28T02:31:29;98640.13;;;21.65;24.10
77212;BME280;66206;0.000;0.000;2023-02-28T02:34:29;98639.19;;;21.70;24.08
77212;BME280;66206;0.000;0.000;2023-02-28T02:36:24;98639.57;;;21.60;24.21
77212;BME280;66206;0.000;0.000;2023-02-28T02:38:52;98638.95;;;21.73;24.01
77212;BME280;66206;0.000;0.000;2023-02-28T02:41:23;98641.08;;;21.54;24.14
77212;BME280;66206;0.000;0.000;2023-02-28T02:43:48;98639.92;;;21.50;24.21
77212;BME280;66206;0.000;0.000;2023-02-28T02:46:17;98638.00;;;21.52;24.11
77212;BME280;66206;0.000;0.000;2023-02-28T02:48:45;98638.83;;;21.52;24.15
77212;BME280;66206;0.000;0.000;2023-02-28T02:51:13;98638.73;;;21.57;24.09
77212;BME280;66206;0.000;0.000;2023-02-28T02:53:41;98642.35;;;21.29;24.28
77212;BME280;66206;0.000;0.000;2023-02-28T02:56:06;98642.07;;;21.44;24.17
77212;BME280;66206;0.000;0.000;2023-02-28T02:58:34;98640.67;;;21.27;24.41
77212;BME280;66206;0.000;0.000;2023-02-28T03:01:02;98644.07;;;21.35;24.22
77212;BME280;66206;0.000;0.000;2023-02-28T03:03:30;98646.02;;;21.19;24.26
77212;BME280;66206;0.000;0.000;2023-02-28T03:05:58;98645.20;;;21.22;24.18
77212;BME280;66206;0.000;0.000;2023-02-28T03:08:26;98645.07;;;21.43;23.96
77212;BME280;66206;0.000;0.000;2023-02-28T03:10:55;98646.44;;;21.58;23.76
77212;BME280;66206;0.000;0.000;2023-02-28T03:13:32;98640.81;;;21.48;23.77
77212;BME280;66206;0.000;0.000;2023-02-28T03:15:50;98643.56;;;21.52;23.69
77212;BME280;66206;0.000;0.000;2023-02-28T03:18:17;98642.38;;;21.48;23.65
77212;BME280;66206;0.000;0.000;2023-02-28T03:20:45;98644.49;;;21.56;23.48
77212;BME280;66206;0.000;0.000;2023-02-28T03:23:15;98641.88;;;21.64;23.40
77212;BME280;66206;0.000;0.000;2023-02-28T03:25:46;98645.40;;;21.51;23.50
77212;BME280;66206;0.000;0.000;2023-02-28T03:28:14;98643.37;;;21.56;23.32
77212;BME280;66206;0.000;0.000;2023-02-28T03:30:45;98644.14;;;21.73;23.17
77212;BME280;66206;0.000;0.000;2023-02-28T03:33:09;98645.44;;;21.65;23.18
77212;BME280;66206;0.000;0.000;2023-02-28T03:35:39;98646.20;;;21.72;23.28
77212;BME280;66206;0.000;0.000;2023-02-28T03:38:08;98649.07;;;21.91;23.12
77212;BME280;66206;0.000;0.000;2023-02-28T03:40:36;98650.14;;;21.98;22.95
77212;BME280;66206;0.000;0.000;2023-02-28T03:43:04;98649.48;;;21.81;23.14
77212;BME280;66206;0.000;0.000;2023-02-28T03:45:32;98652.45;;;21.83;23.02
77212;BME280;66206;0.000;0.000;2023-02-28T03:48:00;98652.84;;;21.74;23.01
77212;BME280;66206;0.000;0.000;2023-02-28T03:50:30;98649.98;;;22.01;23.06
77212;BME280;66206;0.000;0.000;2023-02-28T03:53:01;98651.41;;;21.89;22.96
77212;BME280;66206;0.000;0.000;2023-02-28T03:55:29;98652.94;;;21.86;23.06
77212;BME280;66206;0.000;0.000;2023-02-28T03:57:59;98654.19;;;21.89;22.97
77212;BME280;66206;0.000;0.000;2023-02-28T04:00:28;98653.02;;;21.84;22.98
77212;BME280;66206;0.000;0.000;2023-02-28T04:02:56;98654.02;;;21.88;23.13
77212;BME280;66206;0.000;0.000;2023-02-28T04:05:23;98655.99;;;21.86;23.18
77212;BME280;66206;0.000;0.000;2023-02-28T04:07:50;98653.16;;;21.85;23.12
77212;BME280;66206;0.000;0.000;2023-02-28T04:10:17;98655.68;;;21.93;23.22
77212;BME280;66206;0.000;0.000;2023-02-28T04:12:44;98655.17;;;22.08;23.08
77212;BME280;66206;0.000;0.000;2023-02-28T04:15:10;98655.14;;;21.93;23.15
77212;BME280;66206;0.000;0.000;2023-02-28T04:17:37;98657.08;;;21.99;23.15
77212;BME280;66206;0.000;0.000;2023-02-28T04:20:04;98659.30;;;21.99;23.21
77212;BME280;66206;0.000;0.000;2023-02-28T04:22:31;98660.17;;;21.85;23.26
77212;BME280;66206;0.000;0.000;2023-02-28T04:24:58;98657.02;;;22.13;23.17
77212;BME280;66206;0.000;0.000;2023-02-28T04:27:25;98656.27;;;21.97;23.25
77212;BME280;66206;0.000;0.000;2023-02-28T04:29:51;98657.15;;;22.07;23.18
77212;BME280;66206;0.000;0.000;2023-02-28T04:32:18;98658.99;;;21.88;23.22
77212;BME280;66206;0.000;0.000;2023-02-28T04:34:44;98661.01;;;21.98;23.25
77212;BME280;66206;0.000;0.000;2023-02-28T04:37:11;98656.51;;;21.84;23.32
77212;BME280;66206;0.000;0.000;2023-02-28T04:39:38;98657.51;;;21.90;23.26
77212;BME280;66206;0.000;0.000;2023-02-28T04:42:05;98660.35;;;21.75;23.25
77212;BME280;66206;0.000;0.000;2023-02-28T04:44:32;98656.95;;;21.77;23.34
77212;BME280;66206;0.000;0.000;2023-02-28T04:46:58;98657.62;;;21.83;23.34
77212;BME280;66206;0.000;0.000;2023-02-28T04:49:25;98654.42;;;21.84;23.32
77212;BME280;66206;0.000;0.000;2023-02-28T04:51:52;98654.73;;;21.82;23.37
77212;BME280;66206;0.000;0.000;2023-02-28T04:54:19;98652.57;;;21.64;23.51
77212;BME280;66206;0.000;0.000;2023-02-28T04:56:46;98646.55;;;21.68;23.43
77212;BME280;66206;0.000;0.000;2023-02-28T04:59:12;98652.53;;;21.68;23.43
77212;BME280;66206;0.000;0.000;2023-02-28T05:01:39;98658.29;;;21.57;23.51
77212;BME280;66206;0.000;0.000;2023-02-28T05:04:06;98658.73;;;21.45;23.61
77212;BME280;66206;0.000;0.000;2023-02-28T05:06:32;98661.65;;;21.66;23.43
77212;BME280;66206;0.000;0.000;2023-02-28T05:08:59;98666.12;;;21.52;23.61
77212;BME280;66206;0.000;0.000;2023-02-28T05:11:27;98666.50;;;21.48;23.47
77212;BME280;66206;0.000;0.000;2023-02-28T05:13:54;98666.64;;;21.62;23.39
77212;BME280;66206;0.000;0.000;2023-02-28T05:16:21;98668.65;;;21.56;23.50
77212;BME280;66206;0.000;0.000;2023-02-28T05:18:48;98666.52;;;21.50;23.47
77212;BME280;66206;0.000;0.000;2023-02-28T05:21:22;98664.67;;;21.78;23.33
77212;BME280;66206;0.000;0.000;2023-02-28T05:23:44;98669.62;;;21.61;23.36
77212;BME280;66206;0.000;0.000;2023-02-28T05:26:10;98670.69;;;21.74;23.21
77212;BME280;66206;0.000;0.000;2023-02-28T05:28:37;98669.84;;;21.60;23.16
77212;BME280;66206;0.000;0.000;2023-02-28T05:31:04;98671.06;;;21.73;23.09
77212;BME280;66206;0.000;0.000;2023-02-28T05:33:30;98672.45;;;21.81;23.03
77212;BME280;66206;0.000;0.000;2023-02-28T05:35:57;98672.91;;;21.86;23.02
77212;BME280;66206;0.000;0.000;2023-02-28T05:38:24;98675.87;;;21.89;23.01
77212;BME280;66206;0.000;0.000;2023-02-28T05:40:50;98671.18;;;21.95;23.02
77212;BME280;66206;0.000;0.000;2023-02-28T05:43:17;98671.87;;;22.01;22.96
77212;BME280;66206;0.000;0.000;2023-02-28T05:45:44;98674.29;;;21.90;22.97
77212;BME280;66206;0.000;0.000;2023-02-28T05:48:10;98674.46;;;21.92;22.92
77212;BME280;66206;0.000;0.000;2023-02-28T05:50:37;98677.51;;;21.82;23.03
77212;BME280;66206;0.000;0.000;2023-02-28T05:53:04;98677.94;;;21.88;23.05
77212;BME280;66206;0.000;0.000;2023-02-28T05:55:31;98678.64;;;21.74;23.11
77212;BME280;66206;0.000;0.000;2023-02-28T05:57:57;98680.42;;;21.81;23.08
77212;BME280;66206;0.000;0.000;2023-02-28T06:00:24;98684.75;;;21.79;23.13
77212;BME280;66206;0.000;0.000;2023-02-28T06:02:51;98686.99;;;21.58;23.15
77212;BME280;66206;0.000;0.000;2023-02-28T06:05:18;98683.93;;;21.68;23.14
77212;BME280;66206;0.000;0.000;2023-02-28T06:07:45;98682.13;;;21.81;23.15
77212;BME280;66206;0.000;0.000;2023-02-28T06:10:12;98687.60;;;21.59;23.32
77212;BME280;66206;0.000;0.000;2023-02-28T06:12:39;98689.81;;;21.71;23.21
77212;BME280;66206;0.000;0.000;2023-02-28T06:15:06;98692.31;;;21.79;23.10
77212;BME280;66206;0.000;0.000;2023-02-28T06:17:33;98690.97;;;21.57;23.39
77212;BME280;66206;0.000;0.000;2023-02-28T06:19:59;98689.66;;;21.72;23.17
77212;BME280;66206;0.000;0.000;2023-02-28T06:22:26;98690.67;;;21.49;23.38
77212;BME280;66206;0.000;0.000;2023-02-28T06:24:53;98688.15;;;21.47;23.36
77212;BME280;66206;0.000;0.000;2023-02-28T06:27:20;98692.14;;;21.43;23.41
77212;BME280;66206;0.000;0.000;2023-02-28T06:29:46;98694.02;;;21.38;23.43
77212;BME280;66206;0.000;0.000;2023-02-28T06:32:13;98697.71;;;21.45;23.36
77212;BME280;66206;0.000;0.000;2023-02-28T06:34:40;98702.81;;;21.22;23.50
77212;BME280;66206;0.000;0.000;2023-02-28T06:37:06;98704.15;;;21.41;23.36
77212;BME280;66206;0.000;0.000;2023-02-28T06:39:33;98706.13;;;21.42;23.30
77212;BME280;66206;0.000;0.000;2023-02-28T06:42:00;98703.65;;;21.78;23.16
77212;BME280;66206;0.000;0.000;2023-02-28T06:44:26;98707.71;;;21.64;23.13
77212;BME280;66206;0.000;0.000;2023-02-28T06:46:53;98712.12;;;21.63;23.19
77212;BME280;66206;0.000;0.000;2023-02-28T06:49:20;98712.11;;;21.69;23.02
77212;BME280;66206;0.000;0.000;2023-02-28T06:51:47;98710.35;;;21.65;23.07
77212;BME280;66206;0.000;0.000;2023-02-28T06:54:13;98710.98;;;21.62;23.08
77212;BME280;66206;0.000;0.000;2023-02-28T06:56:40;98712.53;;;21.87;22.83
77212;BME280;66206;0.000;0.000;2023-02-28T06:59:07;98709.31;;;21.89;22.91
77212;BME280;66206;0.000;0.000;2023-02-28T07:01:33;98711.87;;;21.81;22.94
77212;BME280;66206;0.000;0.000;2023-02-28T07:04:00;98714.96;;;21.77;22.91
77212;BME280;66206;0.000;0.000;2023-02-28T07:06:27;98715.49;;;21.97;22.84
77212;BME280;66206;0.000;0.000;2023-02-28T07:08:54;98718.10;;;21.89;22.89
77212;BME280;66206;0.000;0.000;2023-02-28T07:11:22;98721.01;;;21.80;22.92
77212;BME280;66206;0.000;0.000;2023-02-28T07:13:49;98722.23;;;21.98;22.83
77212;BME280;66206;0.000;0.000;2023-02-28T07:16:15;98726.20;;;21.71;23.04
77212;BME280;66206;0.000;0.000;2023-02-28T07:18:42;98725.91;;;21.72;23.01
77212;BME280;66206;0.000;0.000;2023-02-28T07:21:09;98727.89;;;21.67;23.03
77212;BME280;66206;0.000;0.000;2023-02-28T07:23:36;98729.48;;;21.75;22.95
77212;BME280;66206;0.000;0.000;2023-02-28T07:26:03;98731.16;;;21.71;23.00
77212;BME280;66206;0.000;0.000;2023-02-28T07:28:30;98732.71;;;21.67;23.04
77212;BME280;66206;0.000;0.000;2023-02-28T07:31:02;98731.91;;;21.68;23.05
77212;BME280;66206;0.000;0.000;2023-02-28T07:33:24;98733.71;;;21.73;22.98
77212;BME280;66206;0.000;0.000;2023-02-28T07:35:50;98732.22;;;21.81;23.05
77212;BME280;66206;0.000;0.000;2023-02-28T07:38:17;98733.60;;;21.74;23.10
77212;BME280;66206;0.000;0.000;2023-02-28T07:40:44;98732.50;;;21.73;23.10
77212;BME280;66206;0.000;0.000;2023-02-28T07:43:11;98733.83;;;21.64;23.15
77212;BME280;66206;0.000;0.000;2023-02-28T07:45:37;98729.96;;;21.74;23.10
77212;BME280;66206;0.000;0.000;2023-02-28T07:48:04;98736.34;;;21.58;23.09
77212;BME280;66206;0.000;0.000;2023-02-28T07:50:31;98733.39;;;21.63;22.97
77212;BME280;66206;0.000;0.000;2023-02-28T07:52:57;98745.60;;;21.50;23.37
77212;BME280;66206;0.000;0.000;2023-02-28T07:55:24;98744.60;;;21.45;23.27
77212;BME280;66206;0.000;0.000;2023-02-28T07:57:51;98746.61;;;21.55;23.21
77212;BME280;66206;0.000;0.000;2023-02-28T08:00:18;98746.71;;;21.33;23.31
77212;BME280;66206;0.000;0.000;2023-02-28T08:02:44;98743.63;;;21.67;23.10
77212;BME280;66206;0.000;0.000;2023-02-28T08:05:11;98744.23;;;21.56;23.00
77212;BME280;66206;0.000;0.000;2023-02-28T08:07:38;98747.95;;;21.45;23.10
77212;BME280;66206;0.000;0.000;2023-02-28T08:10:05;98738.21;;;21.61;22.95
77212;BME280;66206;0.000;0.000;2023-02-28T08:12:32;98740.28;;;21.62;22.95
77212;BME280;66206;0.000;0.000;2023-02-28T08:14:59;98739.59;;;21.84;22.86
77212;BME280;66206;0.000;0.000;2023-02-28T08:17:25;98738.17;;;21.81;22.85
77212;BME280;66206;0.000;0.000;2023-02-28T08:19:52;98735.47;;;21.87;22.80
77212;BME280;66206;0.000;0.000;2023-02-28T08:22:19;98739.65;;;21.86;24.72
77212;BME280;66206;0.000;0.000;2023-02-28T08:24:45;98740.46;;;21.80;26.21
77212;BME280;66206;0.000;0.000;2023-02-28T08:27:12;98743.33;;;21.63;26.38
77212;BME280;66206;0.000;0.000;2023-02-28T08:29:39;98742.55;;;21.77;26.20
77212;BME280;66206;0.000;0.000;2023-02-28T08:32:06;98743.38;;;21.71;26.07
77212;BME280;66206;0.000;0.000;2023-02-28T08:34:33;98743.80;;;21.69;26.00
77212;BME280;66206;0.000;0.000;2023-02-28T08:37:00;98738.18;;;21.68;25.93
77212;BME280;66206;0.000;0.000;2023-02-28T08:39:26;98739.70;;;21.78;25.87
77212;BME280;66206;0.000;0.000;2023-02-28T08:41:53;98735.05;;;21.82;25.81
77212;BME280;66206;0.000;0.000;2023-02-28T08:44:20;98737.60;;;21.71;25.86
77212;BME280;66206;0.000;0.000;2023-02-28T08:46:46;98738.38;;;21.70;25.87
77212;BME280;66206;0.000;0.000;2023-02-28T08:49:13;98739.67;;;21.61;26.05
77212;BME280;66206;0.000;0.000;2023-02-28T08:51:40;98746.57;;;21.58;26.10
77212;BME280;66206;0.000;0.000;2023-02-28T08:54:07;98747.87;;;21.79;25.89
77212;BME280;66206;0.000;0.000;2023-02-28T08:56:34;98748.82;;;21.82;25.98
77212;BME280;66206;0.000;0.000;2023-02-28T08:59:01;98747.99;;;21.56;26.11
77212;BME280;66206;0.000;0.000;2023-02-28T09:01:28;98743.28;;;21.72;26.04
77212;BME280;66206;0.000;0.000;2023-02-28T09:03:55;98748.07;;;21.63;26.14
77212;BME280;66206;0.000;0.000;2023-02-28T09:06:23;98746.50;;;21.65;26.10
77212;BME280;66206;0.000;0.000;2023-02-28T09:08:50;98746.95;;;21.68;26.05
77212;BME280;66206;0.000;0.000;2023-02-28T09:11:17;98744.00;;;21.52;26.18
77212;BME280;66206;0.000;0.000;2023-02-28T09:13:44;98742.33;;;21.44;26.14
77212;BME280;66206;0.000;0.000;2023-02-28T09:16:12;98742.98;;;21.44;26.22
77212;BME280;66206;0.000;0.000;2023-02-28T09:18:39;98741.94;;;21.49;26.02
77212;BME280;66206;0.000;0.000;2023-02-28T09:21:06;98733.93;;;21.67;25.73
77212;BME280;66206;0.000;0.000;2023-02-28T09:23:33;98741.71;;;21.61;25.53
77212;BME280;66206;0.000;0.000;2023-02-28T09:26:00;98734.81;;;21.58;25.55
77212;BME280;66206;0.000;0.000;2023-02-28T09:28:27;98740.38;;;21.69;25.70
77212;BME280;66206;0.000;0.000;2023-02-28T09:30:54;98740.01;;;21.64;25.86
77212;BME280;66206;0.000;0.000;2023-02-28T09:33:21;98741.72;;;21.67;25.91
77212;BME280;66206;0.000;0.000;2023-02-28T09:35:48;98743.44;;;21.75;25.97
77212;BME280;66206;0.000;0.000;2023-02-28T09:38:15;98744.15;;;21.65;25.99
77212;BME280;66206;0.000;0.000;2023-02-28T09:40:45;98744.90;;;21.61;26.00
77212;BME280;66206;0.000;0.000;2023-02-28T09:43:09;98743.22;;;21.56;26.05
77212;BME280;66206;0.000;0.000;2023-02-28T09:45:35;98744.39;;;21.68;25.88
77212;BME280;66206;0.000;0.000;2023-02-28T09:48:04;98742.23;;;21.74;25.86
77212;BME280;66206;0.000;0.000;2023-02-28T09:50:34;98746.57;;;21.73;25.80
77212;BME280;66206;0.000;0.000;2023-02-28T09:53:02;98743.14;;;21.73;25.81
77212;BME280;66206;0.000;0.000;2023-02-28T09:55:31;98743.01;;;21.74;25.81
77212;BME280;66206;0.000;0.000;2023-02-28T09:58:00;98745.41;;;21.77;25.75
77212;BME280;66206;0.000;0.000;2023-02-28T10:00:29;98737.03;;;21.82;25.76
77212;BME280;66206;0.000;0.000;2023-02-28T10:03:04;98738.77;;;21.68;25.91
77212;BME280;66206;0.000;0.000;2023-02-28T10:05:23;98735.77;;;21.86;25.82
77212;BME280;66206;0.000;0.000;2023-02-28T10:07:55;98743.17;;;21.83;25.79
77212;BME280;66206;0.000;0.000;2023-02-28T10:10:20;98740.90;;;21.77;25.87
77212;BME280;66206;0.000;0.000;2023-02-28T10:12:48;98738.99;;;21.82;25.81
77212;BME280;66206;0.000;0.000;2023-02-28T10:15:17;98737.98;;;21.83;25.89
77212;BME280;66206;0.000;0.000;2023-02-28T10:17:47;98744.62;;;21.75;25.91
77212;BME280;66206;0.000;0.000;2023-02-28T10:20:15;98746.17;;;21.67;26.06
77212;BME280;66206;0.000;0.000;2023-02-28T10:22:49;98742.46;;;21.78;26.09
77212;BME280;66206;0.000;0.000;2023-02-28T10:25:16;98740.35;;;21.71;26.08
77212;BME280;66206;0.000;0.000;2023-02-28T10:27:38;98739.13;;;21.79;26.05
77212;BME280;66206;0.000;0.000;2023-02-28T10:30:05;98741.78;;;21.56;26.13
77212;BME280;66206;0.000;0.000;2023-02-28T10:32:32;98738.98;;;21.54;26.24
77212;BME280;66206;0.000;0.000;2023-02-28T10:35:01;98741.05;;;21.61;26.19
77212;BME280;66206;0.000;0.000;2023-02-28T10:37:27;98733.00;;;21.65;26.13
77212;BME280;66206;0.000;0.000;2023-02-28T10:39:54;98729.66;;;21.80;26.13
77212;BME280;66206;0.000;0.000;2023-02-28T10:42:22;98728.25;;;21.66;26.16
77212;BME280;66206;0.000;0.000;2023-02-28T10:44:49;98731.73;;;21.66;26.21
77212;BME280;66206;0.000;0.000;2023-02-28T10:47:16;98728.01;;;21.72;26.17
77212;BME280;66206;0.000;0.000;2023-02-28T10:49:47;98732.62;;;21.59;26.26
77212;BME280;66206;0.000;0.000;2023-02-28T10:52:09;98733.24;;;21.66;26.19
77212;BME280;66206;0.000;0.000;2023-02-28T10:54:36;98730.42;;;22.01;26.93
77212;BME280;66206;0.000;0.000;2023-02-28T10:57:15;98731.19;;;21.53;26.56
77212;BME280;66206;0.000;0.000;2023-02-28T10:59:32;98730.32;;;21.58;26.66
77212;BME280;66206;0.000;0.000;2023-02-28T11:01:59;98727.24;;;21.76;26.30
77212;BME280;66206;0.000;0.000;2023-02-28T11:04:34;98732.26;;;22.04;26.12
77212;BME280;66206;0.000;0.000;2023-02-28T11:06:57;98730.98;;;22.36;25.76
77212;BME280;66206;0.000;0.000;2023-02-28T11:09:25;98730.75;;;22.33;25.73
77212;BME280;66206;0.000;0.000;2023-02-28T11:11:53;98726.89;;;22.68;25.33
77212;BME280;66206;0.000;0.000;2023-02-28T11:14:21;98733.19;;;22.83;25.21
77212;BME280;66206;0.000;0.000;2023-02-28T11:16:48;98731.99;;;22.96;25.10
77212;BME280;66206;0.000;0.000;2023-02-28T11:19:17;98733.23;;;23.27;24.94
77212;BME280;66206;0.000;0.000;2023-02-28T11:21:48;98732.62;;;23.22;24.89
77212;BME280;66206;0.000;0.000;2023-02-28T11:24:15;98727.78;;;23.26;24.90
77212;BME280;66206;0.000;0.000;2023-02-28T11:26:41;98730.74;;;23.09;24.81
77212;BME280;66206;0.000;0.000;2023-02-28T11:29:11;98726.50;;;23.48;24.40
77212;BME280;66206;0.000;0.000;2023-02-28T11:31:38;98724.99;;;23.49;24.45
77212;BME280;66206;0.000;0.000;2023-02-28T11:34:21;98721.77;;;23.62;24.26
77212;BME280;66206;0.000;0.000;2023-02-28T11:36:33;98726.29;;;23.63;24.08
77212;BME280;66206;0.000;0.000;2023-02-28T11:39:04;98722.07;;;23.59;24.08
77212;BME280;66206;0.000;0.000;2023-02-28T11:41:33;98718.93;;;23.49;24.20
77212;BME280;66206;0.000;0.000;2023-02-28T11:44:04;98716.88;;;23.62;24.13
77212;BME280;66206;0.000;0.000;2023-02-28T11:46:29;98714.74;;;23.48;24.14
77212;BME280;66206;0.000;0.000;2023-02-28T11:48:58;98716.91;;;23.71;24.01
77212;BME280;66206;0.000;0.000;2023-02-28T11:51:23;98715.41;;;23.66;24.22
77212;BME280;66206;0.000;0.000;2023-02-28T11:53:53;98710.22;;;23.91;23.97
77212;BME280;66206;0.000;0.000;2023-02-28T11:56:15;98708.92;;;23.86;23.96
77212;BME280;66206;0.000;0.000;2023-02-28T11:58:43;98709.30;;;23.63;23.98
77212;BME280;66206;0.000;0.000;2023-02-28T12:01:11;98707.58;;;23.59;24.04
77212;BME280;66206;0.000;0.000;2023-02-28T12:03:40;98708.43;;;23.73;23.91
77212;BME280;66206;0.000;0.000;2023-02-28T12:06:07;98711.68;;;23.75;23.94
77212;BME280;66206;0.000;0.000;2023-02-28T12:08:38;98706.84;;;23.44;24.30
77212;BME280;66206;0.000;0.000;2023-02-28T12:11:02;98708.79;;;23.61;24.27
77212;BME280;66206;0.000;0.000;2023-02-28T12:13:29;98705.45;;;23.93;23.75
77212;BME280;66206;0.000;0.000;2023-02-28T12:16:00;98708.44;;;23.88;23.81
77212;BME280;66206;0.000;0.000;2023-02-28T12:18:26;98705.33;;;24.05;23.71
77212;BME280;66206;0.000;0.000;2023-02-28T12:20:52;98702.99;;;23.95;23.64
77212;BME280;66206;0.000;0.000;2023-02-28T12:23:40;98698.17;;;23.97;23.53
77212;BME280;66206;0.000;0.000;2023-02-28T12:25:50;98694.63;;;24.13;23.41
77212;BME280;66206;0.000;0.000;2023-02-28T12:28:11;98694.30;;;24.08;23.43
77212;BME280;66206;0.000;0.000;2023-02-28T12:30:41;98697.44;;;23.81;23.94
77212;BME280;66206;0.000;0.000;2023-02-28T12:33:11;98694.52;;;24.11;23.53
77212;BME280;66206;0.000;0.000;2023-02-28T12:35:41;98692.46;;;24.17;23.38
77212;BME280;66206;0.000;0.000;2023-02-28T12:38:05;98695.62;;;24.57;22.96
77212;BME280;66206;0.000;0.000;2023-02-28T12:40:32;98687.82;;;24.40;23.23
77212;BME280;66206;0.000;0.000;2023-02-28T12:43:01;98680.34;;;24.08;23.66
77212;BME280;66206;0.000;0.000;2023-02-28T12:45:34;98683.23;;;24.20;23.41
77212;BME280;66206;0.000;0.000;2023-02-28T12:47:56;98682.39;;;24.20;23.26
77212;BME280;66206;0.000;0.000;2023-02-28T12:50:24;98678.89;;;24.26;23.20
77212;BME280;66206;0.000;0.000;2023-02-28T12:52:53;98680.53;;;24.11;23.29
77212;BME280;66206;0.000;0.000;2023-02-28T12:55:21;98678.48;;;24.11;23.33
77212;BME280;66206;0.000;0.000;2023-02-28T12:57:46;98681.10;;;23.98;23.43
77212;BME280;66206;0.000;0.000;2023-02-28T13:00:12;98683.19;;;23.96;23.52
77212;BME280;66206;0.000;0.000;2023-02-28T13:02:46;98682.66;;;23.91;23.72
77212;BME280;66206;0.000;0.000;2023-02-28T13:05:12;98688.86;;;24.12;23.47
77212;BME280;66206;0.000;0.000;2023-02-28T13:07:56;98686.58;;;24.28;23.25
77212;BME280;66206;0.000;0.000;2023-02-28T13:10:05;98686.88;;;23.83;23.85